createdAt,value
2019-04-10T00:00:11.191Z,98327.44
2019-04-10T00:00:44.132Z,98322.30
2019-04-10T00:01:15.506Z,98323.61
2019-04-10T00:01:46.855Z,98322.30
2019-04-10T00:02:18.112Z,98329.36
2019-04-10T00:02:50.109Z,98325.75
2019-04-10T00:03:28.929Z,98326.97
2019-04-10T00:03:54.542Z,98327.44
2019-04-10T00:04:25.802Z,98323.91
2019-04-10T00:04:57.019Z,98327.36
2019-04-10T00:05:28.226Z,98328.13
2019-04-10T00:06:00.428Z,98329.97
2019-04-10T00:06:32.004Z,98330.53
2019-04-10T00:07:12.671Z,98321.39
2019-04-10T00:07:36.253Z,98327.91
2019-04-10T00:08:08.207Z,98330.14
2019-04-10T00:08:39.499Z,98330.58
2019-04-10T00:09:10.706Z,98331.44
2019-04-10T00:09:41.911Z,98325.61
2019-04-10T00:10:13.891Z,98327.91
2019-04-10T00:10:45.836Z,98326.22
2019-04-10T00:11:17.111Z,98326.61
2019-04-10T00:11:49.143Z,98330.58
2019-04-10T00:12:21.230Z,98326.75
2019-04-10T00:12:52.437Z,98328.97
2019-04-10T00:13:24.630Z,98327.28
2019-04-10T00:13:55.925Z,98324.33
2019-04-10T00:14:28.173Z,98324.81
2019-04-10T00:14:59.445Z,98331.67
2019-04-10T00:15:30.704Z,98333.28
2019-04-10T00:16:01.869Z,98328.72
2019-04-10T00:16:42.508Z,98335.25
2019-04-10T00:17:13.888Z,98335.25
2019-04-10T00:17:45.143Z,98330.16
2019-04-10T00:18:16.352Z,98332.42
2019-04-10T00:18:48.458Z,98335.47
2019-04-10T00:19:20.329Z,98337.64
2019-04-10T00:19:51.925Z,98339.86
2019-04-10T00:20:23.165Z,98336.08
2019-04-10T00:20:54.379Z,98337.17
2019-04-10T00:21:25.581Z,98337.86
2019-04-10T00:21:57.776Z,98330.64
2019-04-10T00:22:29.038Z,98335.08
2019-04-10T00:23:00.399Z,98332.25
2019-04-10T00:23:31.641Z,98332.86
2019-04-10T00:24:03.884Z,98335.55
2019-04-10T00:24:35.709Z,98335.33
2019-04-10T00:25:06.939Z,98335.03
2019-04-10T00:25:39.165Z,98340.69
2019-04-10T00:26:10.437Z,98339.46
2019-04-10T00:26:41.749Z,98336.85
2019-04-10T00:27:12.974Z,98339.07
2019-04-10T00:27:45.080Z,98332.72
2019-04-10T00:28:17.035Z,98339.89
2019-04-10T00:28:48.321Z,98338.59
2019-04-10T00:29:20.310Z,98339.89
2019-04-10T00:29:52.338Z,98335.62
2019-04-10T00:30:23.609Z,98335.76
2019-04-10T00:30:55.635Z,98335.01
2019-04-10T00:31:26.911Z,98339.05
2019-04-10T00:32:01.343Z,98335.53
2019-04-10T00:32:32.081Z,98337.27
2019-04-10T00:33:03.298Z,98346.40
2019-04-10T00:33:34.717Z,98337.36
2019-04-10T00:34:05.956Z,98338.22
2019-04-10T00:34:37.931Z,98340.44
2019-04-10T00:35:09.160Z,98341.27
2019-04-10T00:35:40.415Z,98339.22
2019-04-10T00:36:12.119Z,98337.91
2019-04-10T00:36:43.626Z,98331.08
2019-04-10T00:37:23.955Z,98334.52
2019-04-10T00:37:47.836Z,98339.81
2019-04-10T00:38:19.831Z,98333.34
2019-04-10T00:38:51.047Z,98339.86
2019-04-10T00:39:22.358Z,98338.20
2019-04-10T00:39:53.557Z,98340.42
2019-04-10T00:40:25.616Z,98335.73
2019-04-10T00:40:57.537Z,98340.50
2019-04-10T00:41:28.765Z,98335.34
2019-04-10T00:42:00.888Z,98338.02
2019-04-10T00:42:32.810Z,98340.16
2019-04-10T00:43:04.087Z,98332.73
2019-04-10T00:43:35.313Z,98333.28
2019-04-10T00:44:07.713Z,98333.64
2019-04-10T00:44:39.657Z,98332.34
2019-04-10T00:45:11.273Z,98336.25
2019-04-10T00:45:42.506Z,98333.64
2019-04-10T00:46:13.732Z,98335.73
2019-04-10T00:46:45.033Z,98330.07
2019-04-10T00:47:17.029Z,98332.68
2019-04-10T00:47:48.472Z,98338.42
2019-04-10T00:48:19.706Z,98333.72
2019-04-10T00:48:50.928Z,98329.89
2019-04-10T00:49:22.232Z,98327.80
2019-04-10T00:49:53.728Z,98330.58
2019-04-10T00:50:24.935Z,98322.36
2019-04-10T00:50:57.086Z,98327.97
2019-04-10T00:51:28.362Z,98324.58
2019-04-10T00:51:59.655Z,98327.66
2019-04-10T00:52:30.918Z,98327.19
2019-04-10T00:53:02.943Z,98327.19
2019-04-10T00:53:34.918Z,98326.44
2019-04-10T00:54:06.205Z,98328.17
2019-04-10T00:54:37.455Z,98328.26
2019-04-10T00:55:08.700Z,98326.95
2019-04-10T00:55:39.970Z,98322.13
2019-04-10T00:56:11.215Z,98322.13
2019-04-10T00:56:43.357Z,98324.43
2019-04-10T00:57:15.027Z,98327.08
2019-04-10T00:57:46.310Z,98324.12
2019-04-10T00:58:18.301Z,98327.08
2019-04-10T00:58:49.569Z,98327.95
2019-04-10T00:59:20.932Z,98326.64
2019-04-10T00:59:52.594Z,98328.39
2019-04-10T01:00:24.066Z,98327.55
2019-04-10T01:00:55.284Z,98326.17
2019-04-10T01:01:27.658Z,98322.22
2019-04-10T01:01:58.882Z,98321.34
2019-04-10T01:02:30.588Z,98321.34
2019-04-10T01:03:02.005Z,98326.05
2019-04-10T01:03:33.711Z,98327.34
2019-04-10T01:04:04.959Z,98325.13
2019-04-10T01:04:36.247Z,98326.05
2019-04-10T01:05:07.591Z,98318.22
2019-04-10T01:05:39.645Z,98327.73
2019-04-10T01:06:11.499Z,98329.95
2019-04-10T01:06:42.848Z,98324.34
2019-04-10T01:07:14.791Z,98325.18
2019-04-10T01:07:47.098Z,98325.65
2019-04-10T01:08:18.600Z,98324.43
2019-04-10T01:08:52.997Z,98320.44
2019-04-10T01:09:25.621Z,98324.34
2019-04-10T01:09:57.587Z,98327.34
2019-04-10T01:10:30.451Z,98326.88
2019-04-10T01:11:02.868Z,98324.73
2019-04-10T01:11:34.971Z,98321.22
2019-04-10T01:12:06.438Z,98323.27
2019-04-10T01:12:38.362Z,98321.97
2019-04-10T01:13:10.645Z,98318.92
2019-04-10T01:13:41.902Z,98323.20
2019-04-10T01:14:13.739Z,98324.06
2019-04-10T01:14:45.649Z,98328.41
2019-04-10T01:15:17.033Z,98321.45
2019-04-10T01:15:49.080Z,98326.66
2019-04-10T01:16:20.840Z,98324.97
2019-04-10T01:17:04.432Z,98326.36
2019-04-10T01:17:36.620Z,98325.88
2019-04-10T01:18:10.942Z,98327.73
2019-04-10T01:18:42.225Z,98327.34
2019-04-10T01:19:15.449Z,98328.65
2019-04-10T01:19:46.872Z,98327.34
2019-04-10T01:20:18.206Z,98335.17
2019-04-10T01:20:50.170Z,98329.56
2019-04-10T01:21:22.163Z,98328.78
2019-04-10T01:21:54.855Z,98330.63
2019-04-10T01:22:27.407Z,98328.39
2019-04-10T01:22:59.747Z,98333.08
2019-04-10T01:23:31.051Z,98330.08
2019-04-10T01:24:03.624Z,98325.26
2019-04-10T01:24:37.684Z,98332.69
2019-04-10T01:25:09.028Z,98328.86
2019-04-10T01:25:40.882Z,98324.03
2019-04-10T01:26:12.798Z,98327.03
2019-04-10T01:26:45.517Z,98321.87
2019-04-10T01:27:17.813Z,98323.17
2019-04-10T01:27:50.038Z,98325.47
2019-04-10T01:28:22.620Z,98329.77
2019-04-10T01:28:54.276Z,98327.87
2019-04-10T01:29:27.275Z,98329.95
2019-04-10T01:30:02.354Z,98328.09
2019-04-10T01:30:34.721Z,98330.97
2019-04-10T01:31:06.744Z,98325.67
2019-04-10T01:31:39.419Z,98333.80
2019-04-10T01:32:11.907Z,98330.80
2019-04-10T01:32:43.981Z,98331.72
2019-04-10T01:33:16.369Z,98325.28
2019-04-10T01:33:47.851Z,98325.75
2019-04-10T01:34:19.151Z,98324.89
2019-04-10T01:34:52.485Z,98323.27
2019-04-10T01:35:24.651Z,98323.44
2019-04-10T01:35:58.451Z,98325.65
2019-04-10T01:36:33.301Z,98325.26
2019-04-10T01:37:06.793Z,98326.13
2019-04-10T01:37:48.770Z,98325.73
2019-04-10T01:38:12.140Z,98324.43
2019-04-10T01:38:43.843Z,98320.20
2019-04-10T01:39:16.424Z,98321.64
2019-04-10T01:39:48.611Z,98322.16
2019-04-10T01:40:23.417Z,98319.55
2019-04-10T01:40:55.674Z,98324.41
2019-04-10T01:41:27.834Z,98320.81
2019-04-10T01:42:00.590Z,98318.25
2019-04-10T01:42:34.196Z,98319.11
2019-04-10T01:43:12.471Z,98322.23
2019-04-10T01:43:39.584Z,98321.80
2019-04-10T01:44:11.110Z,98318.80
2019-04-10T01:44:45.438Z,98314.03
2019-04-10T01:45:17.490Z,98318.88
2019-04-10T01:45:49.519Z,98314.11
2019-04-10T01:46:22.300Z,98316.28
2019-04-10T01:46:54.891Z,98318.02
2019-04-10T01:47:26.919Z,98317.19
2019-04-10T01:47:59.508Z,98317.03
2019-04-10T01:48:32.076Z,98320.73
2019-04-10T01:49:05.200Z,98324.72
2019-04-10T01:49:37.965Z,98315.59
2019-04-10T01:50:09.187Z,98322.16
2019-04-10T01:50:41.090Z,98318.41
2019-04-10T01:51:17.230Z,98322.32
2019-04-10T01:51:49.731Z,98320.42
2019-04-10T01:52:21.119Z,98318.64
2019-04-10T01:52:53.496Z,98320.34
2019-04-10T01:53:26.719Z,98318.12
2019-04-10T01:53:58.514Z,98314.69
2019-04-10T01:54:29.866Z,98319.55
2019-04-10T01:55:03.173Z,98319.19
2019-04-10T01:55:35.715Z,98318.64
2019-04-10T01:56:21.154Z,98316.90
2019-04-10T01:56:41.593Z,98315.64
2019-04-10T01:57:14.652Z,98319.55
2019-04-10T01:57:46.825Z,98322.16
2019-04-10T01:58:19.082Z,98321.25
2019-04-10T01:58:51.697Z,98319.55
2019-04-10T01:59:23.601Z,98313.81
2019-04-10T01:59:55.038Z,98313.42
2019-04-10T02:00:26.321Z,98313.98
2019-04-10T02:00:57.625Z,98313.03
2019-04-10T02:01:29.428Z,98311.38
2019-04-10T02:02:01.085Z,98312.73
2019-04-10T02:02:32.359Z,98314.81
2019-04-10T02:03:03.649Z,98313.81
2019-04-10T02:03:34.911Z,98312.08
2019-04-10T02:04:06.806Z,98315.00
2019-04-10T02:04:38.142Z,98315.00
2019-04-10T02:05:09.433Z,98312.00
2019-04-10T02:05:40.845Z,98307.61
2019-04-10T02:06:12.142Z,98311.13
2019-04-10T02:06:43.408Z,98308.91
2019-04-10T02:07:14.675Z,98311.08
2019-04-10T02:07:57.842Z,98308.00
2019-04-10T02:08:19.058Z,98310.14
2019-04-10T02:08:50.531Z,98311.83
2019-04-10T02:09:23.448Z,98312.23
2019-04-10T02:09:54.675Z,98312.75
2019-04-10T02:10:25.991Z,98307.17
2019-04-10T02:10:57.305Z,98312.39
2019-04-10T02:11:28.559Z,98310.22
2019-04-10T02:11:59.842Z,98310.22
2019-04-10T02:12:31.136Z,98313.69
2019-04-10T02:13:03.225Z,98310.61
2019-04-10T02:13:34.603Z,98312.00
2019-04-10T02:14:05.827Z,98312.00
2019-04-10T02:14:37.072Z,98315.91
2019-04-10T02:15:13.905Z,98310.30
2019-04-10T02:15:43.996Z,98312.08
2019-04-10T02:16:15.354Z,98315.00
2019-04-10T02:16:47.309Z,98320.20
2019-04-10T02:17:18.568Z,98314.13
2019-04-10T02:17:49.851Z,98317.20
2019-04-10T02:18:21.496Z,98314.60
2019-04-10T02:18:52.784Z,98312.75
2019-04-10T02:19:24.083Z,98315.35
2019-04-10T02:19:55.424Z,98312.52
2019-04-10T02:20:27.775Z,98314.69
2019-04-10T02:20:59.257Z,98314.60
2019-04-10T02:21:30.512Z,98314.91
2019-04-10T02:22:02.416Z,98316.05
2019-04-10T02:22:34.329Z,98316.05
2019-04-10T02:23:05.881Z,98317.36
2019-04-10T02:23:38.573Z,98316.53
2019-04-10T02:24:09.869Z,98313.14
2019-04-10T02:24:41.120Z,98322.26
2019-04-10T02:25:12.466Z,98314.05
2019-04-10T02:25:45.144Z,98313.30
2019-04-10T02:26:17.103Z,98315.05
2019-04-10T02:26:48.397Z,98312.08
2019-04-10T02:27:20.665Z,98309.91
2019-04-10T02:27:51.952Z,98311.69
2019-04-10T02:28:24.211Z,98305.56
2019-04-10T02:28:55.634Z,98307.30
2019-04-10T02:29:27.978Z,98307.30
2019-04-10T02:29:59.944Z,98310.38
2019-04-10T02:30:33.006Z,98309.20
2019-04-10T02:31:07.036Z,98313.59
2019-04-10T02:31:39.050Z,98310.12
2019-04-10T02:32:12.064Z,98310.59
2019-04-10T02:32:47.643Z,98308.37
2019-04-10T02:33:19.193Z,98312.37
2019-04-10T02:33:53.751Z,98310.82
2019-04-10T02:34:25.166Z,98304.30
2019-04-10T02:34:58.235Z,98310.43
2019-04-10T02:35:29.895Z,98315.64
2019-04-10T02:36:01.566Z,98313.03
2019-04-10T02:36:35.794Z,98315.59
2019-04-10T02:37:08.648Z,98308.69
2019-04-10T02:37:41.696Z,98309.52
2019-04-10T02:38:30.950Z,98313.38
2019-04-10T02:38:59.504Z,98315.13
2019-04-10T02:39:29.763Z,98312.52
2019-04-10T02:39:57.816Z,98319.42
2019-04-10T02:40:26.655Z,98314.30
2019-04-10T02:41:01.652Z,98314.21
2019-04-10T02:41:34.579Z,98319.81
2019-04-10T02:42:08.126Z,98318.91
2019-04-10T02:42:41.022Z,98318.95
2019-04-10T02:43:13.978Z,98319.73
2019-04-10T02:43:47.330Z,98323.64
2019-04-10T02:44:18.812Z,98319.27
2019-04-10T02:44:52.022Z,98322.81
2019-04-10T02:45:24.169Z,98324.12
2019-04-10T02:45:57.586Z,98321.12
2019-04-10T02:46:29.347Z,98325.11
2019-04-10T02:47:01.993Z,98326.46
2019-04-10T02:47:34.745Z,98329.06
2019-04-10T02:48:08.090Z,98327.38
2019-04-10T02:48:41.572Z,98325.71
2019-04-10T02:49:14.452Z,98329.14
2019-04-10T02:49:47.176Z,98326.07
2019-04-10T02:50:20.670Z,98329.62
2019-04-10T02:50:55.540Z,98326.54
2019-04-10T02:51:27.165Z,98327.02
2019-04-10T02:51:58.996Z,98329.62
2019-04-10T02:52:30.780Z,98330.38
2019-04-10T02:53:07.566Z,98329.62
2019-04-10T02:53:39.449Z,98329.14
2019-04-10T02:54:11.471Z,98327.45
2019-04-10T02:54:43.651Z,98330.92
2019-04-10T02:55:18.692Z,98329.14
2019-04-10T02:55:51.593Z,98329.14
2019-04-10T02:56:25.257Z,98322.23
2019-04-10T02:56:56.948Z,98324.84
2019-04-10T02:57:29.430Z,98324.09
2019-04-10T02:58:02.672Z,98326.75
2019-04-10T02:58:34.448Z,98327.53
2019-04-10T02:59:07.350Z,98325.71
2019-04-10T02:59:43.145Z,98326.07
2019-04-10T03:00:18.047Z,98331.67
2019-04-10T03:00:53.900Z,98320.34
2019-04-10T03:01:23.526Z,98327.24
2019-04-10T03:01:56.057Z,98325.11
2019-04-10T03:02:29.434Z,98328.23
2019-04-10T03:03:05.615Z,98328.31
2019-04-10T03:03:40.310Z,98327.53
2019-04-10T03:04:16.541Z,98332.91
2019-04-10T03:04:49.236Z,98328.60
2019-04-10T03:05:25.700Z,98325.91
2019-04-10T03:06:02.520Z,98331.96
2019-04-10T03:06:35.378Z,98327.69
2019-04-10T03:07:09.543Z,98327.82
2019-04-10T03:07:44.368Z,98328.29
2019-04-10T03:09:26.006Z,98328.29
2019-04-10T03:10:00.457Z,98331.80
2019-04-10T03:10:29.852Z,98333.55
2019-04-10T03:11:01.648Z,98329.64
2019-04-10T03:11:31.301Z,98333.94
2019-04-10T03:12:03.721Z,98329.04
2019-04-10T03:12:36.415Z,98329.64
2019-04-10T03:13:11.474Z,98329.64
2019-04-10T03:13:43.050Z,98327.98
2019-04-10T03:14:16.765Z,98332.25
2019-04-10T03:14:49.845Z,98333.86
2019-04-10T03:15:25.227Z,98331.13
2019-04-10T03:15:57.792Z,98331.44
2019-04-10T03:16:37.661Z,98330.05
2019-04-10T03:17:12.236Z,98332.82
2019-04-10T03:17:44.667Z,98335.43
2019-04-10T03:18:16.817Z,98331.91
2019-04-10T03:18:51.611Z,98334.88
2019-04-10T03:19:25.538Z,98333.27
2019-04-10T03:19:58.082Z,98335.64
2019-04-10T03:20:30.129Z,98331.21
2019-04-10T03:21:02.754Z,98332.95
2019-04-10T03:21:35.360Z,98330.81
2019-04-10T03:22:07.886Z,98331.34
2019-04-10T03:22:41.019Z,98333.86
2019-04-10T03:23:13.524Z,98336.55
2019-04-10T03:23:45.427Z,98331.25
2019-04-10T03:24:16.830Z,98332.55
2019-04-10T03:24:48.520Z,98331.73
2019-04-10T03:25:24.564Z,98335.64
2019-04-10T03:25:57.053Z,98336.94
2019-04-10T03:26:29.811Z,98333.86
2019-04-10T03:27:01.806Z,98337.02
2019-04-10T03:27:34.423Z,98333.11
2019-04-10T03:28:09.105Z,98338.23
2019-04-10T03:28:40.960Z,98339.94
2019-04-10T03:29:13.540Z,98339.63
2019-04-10T03:29:46.376Z,98338.16
2019-04-10T03:30:20.617Z,98338.64
2019-04-10T03:30:53.865Z,98336.47
2019-04-10T03:31:27.187Z,98344.23
2019-04-10T03:31:59.516Z,98339.78
2019-04-10T03:32:36.404Z,98341.34
2019-04-10T03:33:09.346Z,98332.58
2019-04-10T03:33:42.890Z,98341.11
2019-04-10T03:34:14.254Z,98341.58
2019-04-10T03:34:47.502Z,98342.88
2019-04-10T03:35:18.731Z,98341.27
2019-04-10T03:35:51.416Z,98343.17
2019-04-10T03:36:23.240Z,98347.23
2019-04-10T03:36:55.931Z,98346.37
2019-04-10T03:37:28.530Z,98346.37
2019-04-10T03:37:59.978Z,98343.33
2019-04-10T03:38:32.153Z,98353.75
2019-04-10T03:39:06.168Z,98348.90
2019-04-10T03:39:36.483Z,98350.20
2019-04-10T03:40:08.117Z,98355.97
2019-04-10T03:40:39.759Z,98347.16
2019-04-10T03:41:12.393Z,98351.06
2019-04-10T03:41:44.277Z,98354.50
2019-04-10T03:42:16.735Z,98350.75
2019-04-10T03:42:48.174Z,98351.27
2019-04-10T03:43:19.530Z,98352.97
2019-04-10T03:43:50.831Z,98359.09
2019-04-10T03:44:22.860Z,98362.48
2019-04-10T03:44:54.874Z,98359.88
2019-04-10T03:45:26.494Z,98356.36
2019-04-10T03:45:59.121Z,98358.50
2019-04-10T03:46:30.454Z,98358.97
2019-04-10T03:47:02.832Z,98356.95
2019-04-10T03:47:34.160Z,98361.70
2019-04-10T03:48:06.410Z,98357.00
2019-04-10T03:48:38.896Z,98355.34
2019-04-10T03:49:11.800Z,98359.17
2019-04-10T03:49:44.247Z,98356.48
2019-04-10T03:50:16.333Z,98362.48
2019-04-10T03:50:50.263Z,98358.62
2019-04-10T03:51:22.761Z,98356.95
2019-04-10T03:51:55.439Z,98359.48
2019-04-10T03:52:27.450Z,98362.09
2019-04-10T03:53:00.355Z,98363.39
2019-04-10T03:53:32.138Z,98358.62
2019-04-10T03:54:04.726Z,98365.13
2019-04-10T03:54:36.296Z,98357.78
2019-04-10T03:55:08.958Z,98371.21
2019-04-10T03:55:40.992Z,98364.70
2019-04-10T03:56:12.350Z,98366.00
2019-04-10T03:56:43.651Z,98367.61
2019-04-10T03:57:14.991Z,98363.00
2019-04-10T03:57:46.931Z,98367.30
2019-04-10T03:58:19.694Z,98365.09
2019-04-10T03:58:53.246Z,98365.09
2019-04-10T03:59:24.557Z,98363.70
2019-04-10T03:59:56.040Z,98363.78
2019-04-10T04:00:28.367Z,98366.78
2019-04-10T04:01:00.756Z,98366.78
2019-04-10T04:01:33.394Z,98365.48
2019-04-10T04:02:05.271Z,98364.93
2019-04-10T04:02:38.090Z,98368.84
2019-04-10T04:03:10.579Z,98372.63
2019-04-10T04:03:42.681Z,98370.53
2019-04-10T04:04:13.965Z,98369.16
2019-04-10T04:04:46.022Z,98368.24
2019-04-10T04:05:18.291Z,98368.16
2019-04-10T04:05:49.690Z,98370.33
2019-04-10T04:06:21.719Z,98369.47
2019-04-10T04:06:53.019Z,98366.86
2019-04-10T04:07:26.940Z,98365.95
2019-04-10T04:07:59.179Z,98368.16
2019-04-10T04:08:31.913Z,98363.34
2019-04-10T04:09:09.361Z,98362.95
2019-04-10T04:09:39.774Z,98362.20
2019-04-10T04:10:11.044Z,98369.94
2019-04-10T04:10:42.697Z,98367.41
2019-04-10T04:11:17.536Z,98379.14
2019-04-10T04:11:48.881Z,98370.84
2019-04-10T04:12:20.513Z,98372.67
2019-04-10T04:12:51.818Z,98371.32
2019-04-10T04:13:23.683Z,98374.37
2019-04-10T04:13:55.618Z,98370.02
2019-04-10T04:14:27.018Z,98376.38
2019-04-10T04:14:59.113Z,98368.33
2019-04-10T04:15:30.535Z,98373.14
2019-04-10T04:16:02.267Z,98373.92
2019-04-10T04:16:35.318Z,98373.14
2019-04-10T04:17:06.582Z,98372.67
2019-04-10T04:17:38.031Z,98365.80
2019-04-10T04:18:09.318Z,98374.44
2019-04-10T04:18:41.489Z,98364.80
2019-04-10T04:19:13.540Z,98371.68
2019-04-10T04:19:45.066Z,98372.55
2019-04-10T04:20:16.935Z,98375.98
2019-04-10T04:20:48.456Z,98373.38
2019-04-10T04:21:20.576Z,98381.20
2019-04-10T04:21:52.362Z,98370.77
2019-04-10T04:22:25.061Z,98371.63
2019-04-10T04:22:57.080Z,98376.45
2019-04-10T04:23:28.466Z,98372.98
2019-04-10T04:23:59.750Z,98374.28
2019-04-10T04:24:31.550Z,98371.63
2019-04-10T04:25:04.596Z,98379.89
2019-04-10T04:25:37.090Z,98372.47
2019-04-10T04:26:08.765Z,98373.77
2019-04-10T04:26:40.453Z,98381.07
2019-04-10T04:27:11.751Z,98381.07
2019-04-10T04:27:44.125Z,98378.46
2019-04-10T04:28:15.564Z,98378.55
2019-04-10T04:28:49.427Z,98375.47
2019-04-10T04:29:21.078Z,98377.68
2019-04-10T04:29:52.411Z,98378.20
2019-04-10T04:30:24.678Z,98378.59
2019-04-10T04:30:56.803Z,98381.20
2019-04-10T04:31:31.217Z,98377.84
2019-04-10T04:32:02.559Z,98380.44
2019-04-10T04:32:33.897Z,98372.55
2019-04-10T04:33:06.650Z,98383.05
2019-04-10T04:33:39.049Z,98379.89
2019-04-10T04:34:12.269Z,98376.45
2019-04-10T04:34:43.938Z,98380.37
2019-04-10T04:35:15.717Z,98379.06
2019-04-10T04:35:47.422Z,98382.89
2019-04-10T04:36:20.317Z,98384.67
2019-04-10T04:36:53.323Z,98382.50
2019-04-10T04:37:25.779Z,98379.50
2019-04-10T04:37:58.299Z,98381.20
2019-04-10T04:38:29.668Z,98375.07
2019-04-10T04:39:12.778Z,98379.89
2019-04-10T04:39:34.951Z,98382.06
2019-04-10T04:40:06.306Z,98378.59
2019-04-10T04:40:37.783Z,98379.50
2019-04-10T04:41:09.095Z,98378.20
2019-04-10T04:41:40.382Z,98376.89
2019-04-10T04:42:12.642Z,98376.89
2019-04-10T04:42:44.109Z,98379.97
2019-04-10T04:43:15.344Z,98383.88
2019-04-10T04:43:47.659Z,98387.80
2019-04-10T04:44:20.292Z,98380.37
2019-04-10T04:44:52.112Z,98384.27
2019-04-10T04:45:23.539Z,98380.76
2019-04-10T04:45:55.419Z,98379.89
2019-04-10T04:46:26.729Z,98384.59
2019-04-10T04:46:58.887Z,98378.55
2019-04-10T04:47:30.995Z,98381.07
2019-04-10T04:48:02.284Z,98378.46
2019-04-10T04:48:34.276Z,98377.60
2019-04-10T04:49:05.514Z,98384.43
2019-04-10T04:49:37.752Z,98381.83
2019-04-10T04:50:09.773Z,98380.52
2019-04-10T04:50:41.608Z,98383.13
2019-04-10T04:51:12.909Z,98382.61
2019-04-10T04:51:44.125Z,98380.00
2019-04-10T04:52:16.267Z,98380.87
2019-04-10T04:52:47.626Z,98383.47
2019-04-10T04:53:18.850Z,98383.83
2019-04-10T04:53:50.492Z,98381.22
2019-04-10T04:54:21.756Z,98381.22
2019-04-10T04:54:53.284Z,98383.83
2019-04-10T04:55:24.620Z,98386.75
2019-04-10T04:55:55.804Z,98382.80
2019-04-10T04:56:28.129Z,98384.93
2019-04-10T04:57:00.148Z,98387.02
2019-04-10T04:57:34.188Z,98386.11
2019-04-10T04:58:04.424Z,98383.86
2019-04-10T04:58:36.071Z,98391.56
2019-04-10T04:59:08.012Z,98388.95
2019-04-10T04:59:39.246Z,98387.56
2019-04-10T05:00:10.464Z,98383.34
2019-04-10T05:00:41.829Z,98381.20
2019-04-10T05:01:13.040Z,98389.03
2019-04-10T05:01:44.788Z,98392.55
2019-04-10T05:02:16.021Z,98389.08
2019-04-10T05:02:48.176Z,98392.08
2019-04-10T05:03:19.418Z,98390.38
2019-04-10T05:03:50.654Z,98394.68
2019-04-10T05:04:22.909Z,98395.47
2019-04-10T05:04:54.154Z,98397.52
2019-04-10T05:05:25.419Z,98396.22
2019-04-10T05:05:56.635Z,98401.08
2019-04-10T05:06:27.838Z,98396.61
2019-04-10T05:06:59.915Z,98396.09
2019-04-10T05:07:31.334Z,98394.79
2019-04-10T05:08:04.338Z,98397.39
2019-04-10T05:08:35.550Z,98403.00
2019-04-10T05:09:06.830Z,98399.09
2019-04-10T05:09:39.335Z,98403.76
2019-04-10T05:10:11.205Z,98402.02
2019-04-10T05:10:42.472Z,98406.84
2019-04-10T05:11:13.913Z,98398.18
2019-04-10T05:11:45.181Z,98401.54
2019-04-10T05:12:16.677Z,98403.70
2019-04-10T05:12:49.514Z,98402.84
2019-04-10T05:13:20.754Z,98404.54
2019-04-10T05:13:53.006Z,98400.94
2019-04-10T05:14:24.277Z,98399.55
2019-04-10T05:14:55.785Z,98405.64
2019-04-10T05:15:27.034Z,98405.16
2019-04-10T05:15:58.244Z,98411.56
2019-04-10T05:16:29.484Z,98408.03
2019-04-10T05:17:00.679Z,98412.86
2019-04-10T05:17:32.968Z,98408.95
2019-04-10T05:18:04.296Z,98405.95
2019-04-10T05:18:35.515Z,98409.86
2019-04-10T05:19:06.734Z,98407.64
2019-04-10T05:19:38.314Z,98405.03
2019-04-10T05:20:09.573Z,98406.26
2019-04-10T05:20:45.917Z,98409.70
2019-04-10T05:21:13.838Z,98408.79
2019-04-10T05:21:45.647Z,98409.65
2019-04-10T05:22:16.939Z,98408.87
2019-04-10T05:22:49.188Z,98407.09
2019-04-10T05:23:22.278Z,98407.09
2019-04-10T05:23:53.620Z,98407.09
2019-04-10T05:24:24.851Z,98407.48
2019-04-10T05:24:56.408Z,98408.79
2019-04-10T05:25:27.681Z,98408.34
2019-04-10T05:25:59.195Z,98409.57
2019-04-10T05:26:32.360Z,98408.19
2019-04-10T05:27:03.638Z,98407.35
2019-04-10T05:27:35.042Z,98407.35
2019-04-10T05:28:06.303Z,98406.96
2019-04-10T05:28:38.129Z,98404.35
2019-04-10T05:29:09.458Z,98407.80
2019-04-10T05:29:40.956Z,98401.97
2019-04-10T05:30:12.878Z,98406.20
2019-04-10T05:30:45.056Z,98411.89
2019-04-10T05:31:17.253Z,98409.28
2019-04-10T05:31:48.967Z,98409.28
2019-04-10T05:32:21.288Z,98407.81
2019-04-10T05:32:52.778Z,98403.45
2019-04-10T05:33:24.725Z,98411.20
2019-04-10T05:33:56.042Z,98410.81
2019-04-10T05:34:27.608Z,98409.90
2019-04-10T05:34:58.866Z,98412.12
2019-04-10T05:35:30.071Z,98410.50
2019-04-10T05:36:01.400Z,98412.72
2019-04-10T05:36:33.519Z,98413.63
2019-04-10T05:37:05.297Z,98407.66
2019-04-10T05:37:36.504Z,98417.23
2019-04-10T05:38:08.051Z,98415.02
2019-04-10T05:38:39.352Z,98414.58
2019-04-10T05:39:10.710Z,98416.33
2019-04-10T05:39:47.804Z,98416.80
2019-04-10T05:40:15.273Z,98415.02
2019-04-10T05:40:46.480Z,98416.33
2019-04-10T05:41:17.731Z,98417.55
2019-04-10T05:41:48.995Z,98413.27
2019-04-10T05:42:20.643Z,98411.50
2019-04-10T05:42:51.939Z,98416.20
2019-04-10T05:43:23.997Z,98416.55
2019-04-10T05:43:55.311Z,98413.42
2019-04-10T05:44:27.650Z,98414.28
2019-04-10T05:44:58.934Z,98418.56
2019-04-10T05:45:30.168Z,98415.59
2019-04-10T05:46:01.380Z,98415.91
2019-04-10T05:46:32.619Z,98414.59
2019-04-10T05:47:03.807Z,98417.95
2019-04-10T05:47:35.085Z,98412.73
2019-04-10T05:48:06.787Z,98416.13
2019-04-10T05:48:38.107Z,98413.00
2019-04-10T05:49:09.316Z,98415.61
2019-04-10T05:49:41.463Z,98415.92
2019-04-10T05:50:13.034Z,98413.23
2019-04-10T05:50:53.900Z,98417.97
2019-04-10T05:51:17.191Z,98416.75
2019-04-10T05:51:48.478Z,98412.36
2019-04-10T05:52:20.343Z,98414.84
2019-04-10T05:52:51.834Z,98414.76
2019-04-10T05:53:23.238Z,98409.93
2019-04-10T05:53:55.438Z,98415.54
2019-04-10T05:54:27.009Z,98410.71
2019-04-10T05:54:58.278Z,98415.37
2019-04-10T05:55:29.487Z,98411.46
2019-04-10T05:56:01.507Z,98419.24
2019-04-10T05:56:32.836Z,98408.72
2019-04-10T05:57:04.181Z,98410.77
2019-04-10T05:57:35.771Z,98412.47
2019-04-10T05:58:07.212Z,98413.56
2019-04-10T05:58:39.497Z,98414.34
2019-04-10T05:59:12.090Z,98415.09
2019-04-10T05:59:43.953Z,98415.87
2019-04-10T06:00:16.627Z,98414.17
2019-04-10T06:00:49.671Z,98413.70
2019-04-10T06:01:31.428Z,98410.95
2019-04-10T06:01:54.195Z,98416.70
2019-04-10T06:02:27.138Z,98415.34
2019-04-10T06:02:58.534Z,98409.52
2019-04-10T06:03:30.310Z,98414.20
2019-04-10T06:04:01.641Z,98414.59
2019-04-10T06:04:33.575Z,98422.82
2019-04-10T06:05:05.641Z,98420.95
2019-04-10T06:05:37.012Z,98424.88
2019-04-10T06:06:08.406Z,98424.82
2019-04-10T06:06:39.855Z,98424.21
2019-04-10T06:07:12.731Z,98417.60
2019-04-10T06:07:44.029Z,98416.69
2019-04-10T06:08:16.102Z,98416.69
2019-04-10T06:08:47.385Z,98415.43
2019-04-10T06:09:18.636Z,98424.05
2019-04-10T06:09:55.955Z,98415.73
2019-04-10T06:10:22.889Z,98419.22
2019-04-10T06:10:54.128Z,98412.69
2019-04-10T06:11:25.332Z,98420.91
2019-04-10T06:11:57.352Z,98415.13
2019-04-10T06:12:28.647Z,98419.82
2019-04-10T06:13:00.505Z,98424.95
2019-04-10T06:13:32.626Z,98415.82
2019-04-10T06:14:03.904Z,98418.21
2019-04-10T06:14:35.129Z,98418.91
2019-04-10T06:15:06.505Z,98419.81
2019-04-10T06:15:37.791Z,98423.82
2019-04-10T06:16:09.769Z,98423.05
2019-04-10T06:16:41.067Z,98422.43
2019-04-10T06:17:12.304Z,98426.05
2019-04-10T06:17:44.749Z,98426.66
2019-04-10T06:18:16.046Z,98426.56